Superior, Montana
Current Conditions -  °F | °C
As of 12:53 AM on Monday 26 Jan 2015 (Local Time) from KMLP Reporting Station
Clear Clear  
Wind Chill: 37°   Ceiling: Unl
Heat Index: 42°   Visibility: 10mi
Dew Point: 27°   Wind: 8mph
Humidity: 55%   Direction: 200°SSW
Pressure: 30.21"   Gusts: NA
Location:  47.19°N, 114.89°W
Report Text: KMLP 260753Z AUTO 20007KT 10SM CLR 06/M03 A3021 RMK AO2 SLP181 T00561028 400670022
Loading
Personal Weather Stations






























Interactive Weather Map New forecast layout! Learn more

10-Day Weather Forecast

Advertisements
Track Severe Weather on mobile